Terminal Aerodrome Forecast
Issued by NWS Sioux Falls, SD

Home | Current Version | Previous Version | Text Only | Print | Product List | Glossary On
Versions: 1 2 3 4 5 6 7 8 9 10 11 12 13 14 15 16
000
FTUS43 KFSD 051134
TAFHON
TAF
KHON 051134Z 0512/0612 14010KT P6SM BKN200
     FM051600 14012G18KT P6SM SCT090 BKN200
      TEMPO 0516/0518 6SM TSRA BKN070CB
     FM060000 16011KT P6SM SCT070 BKN150
      TEMPO 0600/0603 6SM TSRA BKN050CB
     FM060500 16009KT P6SM SCT100 BKN200 WS015/20044KT=

USA.gov is the U.S. government's official web portal to all federal, state and local government web resources and services.